Terminal Aerodrome Forecast
Issued by NWS

Home | Current Version | Previous Version | Text Only | Print | Product List | Glossary On
Versions: 1 2 3 4 5 6 7 8 9 10 11 12 13 14 15 16 17 18 19 20 21 22 23 24 25 26 27 28 29 30 31 32
000
FTUS42 KMFL 302108 AAC
TAFMIA
TAF AMD
KMIA 302108Z 3021/3118 17011KT 6SM -RA VCSH SCT020 BKN040 BKN080
     FM310000 16010G15KT P6SM VCSH SCT020 BKN050 BKN100=

USA.gov is the U.S. government's official web portal to all federal, state and local government web resources and services.